Time;durP1;ratioP1;P1;durP2;ratioP2;P2;SDS_P1;SDS_P2;PMS_P1;PMS_P2;Temp;Humidity;BMP_temperature;BMP_pressure;BME280_temperature;BME280_humidity;BME280_pressure;Samples;Min_cycle;Max_cycle;Signal;HPM_P1;HPM_P2
2021/10/24 00:00:50;;;;;;;0.00;0.00;;;7.50;55.50;;;;;;5055808;28;20039;-74
2021/10/24 00:03:15;;;;;;;0.00;0.00;;;7.50;55.50;;;;;;5056514;28;20485;-74
2021/10/24 00:05:41;;;;;;;0.00;0.00;;;7.50;55.60;;;;;;5056781;28;20029;-75
2021/10/24 00:08:07;;;;;;;0.00;0.00;;;7.50;55.60;;;;;;5055585;28;20051;-73
2021/10/24 00:10:33;;;;;;;0.00;0.00;;;7.50;56.00;;;;;;5056712;28;20032;-73
2021/10/24 00:12:59;;;;;;;0.00;0.00;;;7.50;55.90;;;;;;5056450;28;20116;-73
2021/10/24 00:15:24;;;;;;;0.00;0.00;;;7.50;55.80;;;;;;5072690;28;20061;-73
2021/10/24 00:17:50;;;;;;;0.00;0.00;;;7.50;55.80;;;;;;5056862;28;20055;-73
2021/10/24 00:20:16;;;;;;;0.00;0.00;;;7.50;55.80;;;;;;5056620;28;20033;-75
2021/10/24 00:22:42;;;;;;;0.00;0.00;;;7.50;55.80;;;;;;5056344;28;20056;-74
2021/10/24 00:25:08;;;;;;;0.00;0.00;;;7.50;55.80;;;;;;5057173;28;20075;-74
2021/10/24 00:27:34;;;;;;;0.00;0.00;;;7.50;55.80;;;;;;5056265;28;20036;-73
2021/10/24 00:30:00;;;;;;;0.00;0.00;;;7.50;55.90;;;;;;5056543;28;20366;-72
2021/10/24 00:32:26;;;;;;;0.00;0.00;;;7.50;55.90;;;;;;5056484;28;20017;-73
2021/10/24 00:34:52;;;;;;;0.05;0.00;;;7.50;56.10;;;;;;5056481;28;20021;-75
2021/10/24 00:37:18;;;;;;;0.00;0.00;;;7.40;56.00;;;;;;5071822;28;20028;-74
2021/10/24 00:39:45;;;;;;;0.00;0.00;;;7.40;56.00;;;;;;5056308;28;20036;-76
2021/10/24 00:42:11;;;;;;;0.00;0.00;;;7.40;56.00;;;;;;5055744;28;20395;-73
2021/10/24 00:44:36;;;;;;;0.00;0.00;;;7.30;56.00;;;;;;5056320;28;20029;-74
2021/10/24 00:47:05;;;;;;;0.00;0.00;;;7.30;56.10;;;;;;5056391;28;20033;-74
2021/10/24 00:49:31;;;;;;;0.00;0.00;;;7.30;56.20;;;;;;5055916;28;20108;-74
2021/10/24 00:51:57;;;;;;;0.00;0.00;;;7.30;56.50;;;;;;5056286;28;20056;-73
2021/10/24 00:54:27;;;;;;;0.00;0.00;;;7.30;56.50;;;;;;5055938;28;20472;-73
2021/10/24 00:56:56;;;;;;;0.00;0.00;;;7.20;56.40;;;;;;5055705;28;20029;-73
2021/10/24 00:59:23;;;;;;;0.00;0.00;;;7.20;56.40;;;;;;5056055;28;20113;-73
2021/10/24 01:01:49;;;;;;;0.00;0.00;;;7.20;56.40;;;;;;5055624;28;20079;-73
2021/10/24 01:04:15;;;;;;;0.00;0.00;;;7.20;56.40;;;;;;5055857;28;20420;-74
2021/10/24 01:06:42;;;;;;;0.00;0.00;;;7.20;56.80;;;;;;5070998;28;20083;-73
2021/10/24 01:09:15;;;;;;;0.00;0.00;;;7.30;56.80;;;;;;5055716;28;20021;-73
2021/10/24 01:11:43;;;;;;;0.00;0.00;;;7.30;56.70;;;;;;5056010;28;20029;-73
2021/10/24 01:14:10;;;;;;;0.00;0.00;;;7.30;56.60;;;;;;5055779;28;20427;-73
2021/10/24 01:16:37;;;;;;;0.00;0.00;;;7.40;56.60;;;;;;5055410;28;20420;-73
2021/10/24 01:19:08;;;;;;;0.00;0.00;;;7.40;56.50;;;;;;5055867;28;20021;-73
2021/10/24 01:21:34;;;;;;;0.00;0.00;;;7.40;56.50;;;;;;5055347;28;20115;-73
2021/10/24 01:24:00;;;;;;;0.00;0.00;;;7.40;56.50;;;;;;5054576;28;20132;-73
2021/10/24 01:26:26;;;;;;;0.10;0.10;;;7.40;56.40;;;;;;5054889;28;20132;-73
2021/10/24 01:28:56;;;;;;;0.08;0.00;;;7.40;56.50;;;;;;5055789;28;20029;-73
2021/10/24 01:31:23;;;;;;;0.00;0.00;;;7.40;56.50;;;;;;5055084;28;20094;-73
2021/10/24 01:33:49;;;;;;;0.00;0.00;;;7.40;56.80;;;;;;5055288;28;20065;-73
2021/10/24 01:36:15;;;;;;;0.00;0.00;;;7.50;56.80;;;;;;5055000;28;20496;-74
2021/10/24 01:38:50;;;;;;;0.00;0.00;;;7.40;56.70;;;;;;5055237;28;20065;-73
2021/10/24 01:41:18;;;;;;;0.00;0.00;;;7.40;56.80;;;;;;5055897;28;20041;-72
2021/10/24 01:43:46;;;;;;;0.00;0.00;;;7.40;56.80;;;;;;5055882;28;20465;-72
2021/10/24 01:46:13;;;;;;;0.00;0.00;;;7.40;56.90;;;;;;5055021;28;20029;-73
2021/10/24 01:48:39;;;;;;;0.00;0.00;;;7.40;56.90;;;;;;5054939;28;20025;-74
2021/10/24 01:51:05;;;;;;;0.00;0.00;;;7.40;57.00;;;;;;5054572;28;20469;-74
2021/10/24 01:53:33;;;;;;;0.00;0.00;;;7.50;57.20;;;;;;5055254;28;20033;-74
2021/10/24 01:55:59;;;;;;;0.00;0.00;;;7.50;57.10;;;;;;5055146;28;20032;-75
2021/10/24 01:58:26;;;;;;;0.00;0.00;;;7.50;57.20;;;;;;5055123;28;20449;-74
2021/10/24 02:00:52;;;;;;;0.00;0.00;;;7.50;57.20;;;;;;5054080;28;20131;-74
2021/10/24 02:03:18;;;;;;;0.00;0.00;;;7.50;57.30;;;;;;5055046;28;20025;-74
2021/10/24 02:05:46;;;;;;;0.00;0.00;;;7.50;57.30;;;;;;5054683;28;20033;-73
2021/10/24 02:08:12;;;;;;;0.00;0.00;;;7.50;57.40;;;;;;5070533;28;20107;-73
2021/10/24 02:10:39;;;;;;;0.00;0.00;;;7.50;57.50;;;;;;5054229;28;20462;-74
2021/10/24 02:13:06;;;;;;;0.00;0.00;;;7.50;57.50;;;;;;5054273;28;20025;-74
2021/10/24 02:15:33;;;;;;;0.00;0.00;;;7.60;57.50;;;;;;5054427;28;20492;-74
2021/10/24 02:17:59;;;;;;;0.00;0.00;;;7.60;58.00;;;;;;5053387;28;20404;-74
2021/10/24 02:20:26;;;;;;;0.00;0.00;;;7.60;58.10;;;;;;5054759;28;20025;-74
2021/10/24 02:22:52;;;;;;;0.00;0.00;;;7.60;58.40;;;;;;5054375;28;20057;-74
2021/10/24 02:25:18;;;;;;;0.00;0.00;;;7.60;58.30;;;;;;5054353;28;20032;-75
2021/10/24 02:27:44;;;;;;;0.00;0.00;;;7.70;58.20;;;;;;5069612;28;20043;-74
2021/10/24 02:30:11;;;;;;;0.00;0.00;;;7.70;58.00;;;;;;5053857;28;20112;-74
2021/10/24 02:32:38;;;;;;;0.00;0.00;;;7.80;58.00;;;;;;5054036;28;20489;-74
2021/10/24 02:35:04;;;;;;;0.00;0.00;;;7.80;58.00;;;;;;5069483;28;20029;-75
2021/10/24 02:37:31;;;;;;;0.00;0.00;;;7.80;57.90;;;;;;5053923;28;20025;-74
2021/10/24 02:39:57;;;;;;;0.00;0.00;;;7.90;58.00;;;;;;5069572;28;20032;-75
2021/10/24 02:42:23;;;;;;;0.00;0.00;;;7.80;57.90;;;;;;5070125;28;20444;-75
2021/10/24 02:44:48;;;;;;;0.00;0.00;;;7.90;58.00;;;;;;5052690;28;20068;-74
2021/10/24 02:47:17;;;;;;;0.00;0.00;;;7.90;58.10;;;;;;5054276;28;20080;-74
2021/10/24 02:49:43;;;;;;;0.00;0.00;;;7.90;58.10;;;;;;5052720;28;20048;-75
2021/10/24 02:52:09;;;;;;;0.00;0.00;;;7.90;58.10;;;;;;5053927;28;20025;-75
2021/10/24 02:54:35;;;;;;;0.00;0.00;;;8.00;58.20;;;;;;5053640;28;20070;-74
2021/10/24 02:57:02;;;;;;;0.00;0.00;;;7.90;58.20;;;;;;5052601;28;20079;-74
2021/10/24 02:59:28;;;;;;;0.00;0.00;;;8.00;58.20;;;;;;5052504;28;20051;-74
2021/10/24 03:01:54;;;;;;;0.00;0.00;;;8.00;58.30;;;;;;5052593;28;20029;-73
2021/10/24 03:04:20;;;;;;;0.00;0.00;;;8.00;58.30;;;;;;5053781;28;20029;-74
2021/10/24 03:06:47;;;;;;;0.00;0.00;;;8.00;58.30;;;;;;5053666;28;20362;-73
2021/10/24 03:09:12;;;;;;;0.00;0.00;;;8.00;58.30;;;;;;5069691;28;20410;-73
2021/10/24 03:11:38;;;;;;;0.00;0.00;;;8.00;58.40;;;;;;5052142;28;20071;-73
2021/10/24 03:14:04;;;;;;;0.00;0.00;;;8.00;58.40;;;;;;5053628;28;20081;-73
2021/10/24 03:16:31;;;;;;;0.00;0.00;;;8.00;58.50;;;;;;5053676;28;20040;-74
2021/10/24 03:18:57;;;;;;;0.00;0.00;;;8.00;58.90;;;;;;5057101;28;20025;-74
2021/10/24 03:21:23;;;;;;;0.00;0.00;;;8.10;58.90;;;;;;5058124;28;20420;-75
2021/10/24 03:23:49;;;;;;;0.00;0.00;;;8.00;58.80;;;;;;5056591;28;20049;-75
2021/10/24 03:26:14;;;;;;;0.00;0.00;;;8.00;58.80;;;;;;5057630;28;20078;-74
2021/10/24 03:28:40;;;;;;;0.00;0.00;;;8.00;58.80;;;;;;5057665;28;20500;-74
2021/10/24 03:31:06;;;;;;;0.00;0.00;;;8.10;58.80;;;;;;5057296;28;20100;-75
2021/10/24 03:33:32;;;;;;;0.00;0.00;;;8.10;59.20;;;;;;5057855;28;20462;-74
2021/10/24 03:35:58;;;;;;;0.00;0.00;;;8.10;59.10;;;;;;5058050;28;20450;-74
2021/10/24 03:38:23;;;;;;;0.00;0.00;;;8.10;59.10;;;;;;5056377;28;20029;-74
2021/10/24 03:40:49;;;;;;;0.05;0.05;;;8.10;59.40;;;;;;5057419;28;20059;-73
2021/10/24 03:43:15;;;;;;;0.00;0.00;;;8.10;59.40;;;;;;5057610;28;20492;-74
2021/10/24 03:45:41;;;;;;;0.00;0.00;;;8.10;59.30;;;;;;5057087;28;20057;-74
2021/10/24 03:48:07;;;;;;;0.00;0.00;;;8.10;59.20;;;;;;5072603;28;20029;-74
2021/10/24 03:50:33;;;;;;;0.00;0.00;;;8.10;59.10;;;;;;5057516;28;20083;-74
2021/10/24 03:52:59;;;;;;;0.00;0.00;;;8.10;59.40;;;;;;5057215;28;20052;-74
2021/10/24 03:55:25;;;;;;;0.00;0.00;;;8.20;59.40;;;;;;5056891;28;20413;-73
2021/10/24 03:57:51;;;;;;;0.00;0.00;;;8.20;59.60;;;;;;5057012;28;20017;-73
2021/10/24 04:00:16;;;;;;;0.00;0.00;;;8.20;59.50;;;;;;5056979;28;20025;-73
2021/10/24 04:02:54;;;;;;;0.00;0.00;;;8.20;59.30;;;;;;5056985;28;20029;-74
2021/10/24 04:05:20;;;;;;;0.00;0.00;;;8.20;59.40;;;;;;5056886;28;20020;-74
2021/10/24 04:07:48;;;;;;;0.00;0.00;;;8.20;59.30;;;;;;5056776;28;20098;-75
2021/10/24 04:10:15;;;;;;;0.00;0.00;;;8.20;59.30;;;;;;5056877;28;20036;-73
2021/10/24 04:12:40;;;;;;;0.00;0.00;;;8.20;59.30;;;;;;5057198;28;20028;-73
2021/10/24 04:15:07;;;;;;;0.00;0.00;;;8.10;59.30;;;;;;5056729;28;20062;-74
2021/10/24 04:17:32;;;;;;;0.00;0.00;;;8.10;59.40;;;;;;5072146;28;20041;-74
2021/10/24 04:19:58;;;;;;;0.00;0.00;;;8.20;59.50;;;;;;5056364;28;20092;-74
2021/10/24 04:22:24;;;;;;;0.00;0.00;;;8.20;59.50;;;;;;5056528;28;20072;-74
2021/10/24 04:24:49;;;;;;;0.00;0.00;;;8.20;59.80;;;;;;5056465;28;20048;-74
2021/10/24 04:27:15;;;;;;;0.00;0.00;;;8.20;59.80;;;;;;5056448;28;20041;-74
2021/10/24 04:29:41;;;;;;;0.00;0.00;;;8.20;59.90;;;;;;5056115;28;20021;-74
2021/10/24 04:32:07;;;;;;;0.00;0.00;;;8.20;59.90;;;;;;5055211;28;20528;-74
2021/10/24 04:34:32;;;;;;;0.00;0.00;;;8.20;60.00;;;;;;5056426;28;20049;-74
2021/10/24 04:36:58;;;;;;;0.00;0.00;;;8.20;59.90;;;;;;5056337;28;20087;-74
2021/10/24 04:39:24;;;;;;;0.00;0.00;;;8.20;60.00;;;;;;5056282;28;20033;-73
2021/10/24 04:41:49;;;;;;;0.00;0.00;;;8.20;59.90;;;;;;5055107;28;20115;-74
2021/10/24 04:44:15;;;;;;;0.10;0.00;;;8.20;59.80;;;;;;5054927;28;20031;-74
2021/10/24 04:46:41;;;;;;;0.00;0.00;;;8.20;59.80;;;;;;5054915;28;20057;-73
2021/10/24 04:49:07;;;;;;;0.00;0.00;;;8.30;59.90;;;;;;5056102;28;20025;-73
2021/10/24 04:51:32;;;;;;;0.15;0.00;;;8.30;60.10;;;;;;5055227;28;20025;-73
2021/10/24 04:53:58;;;;;;;0.00;0.00;;;8.30;60.10;;;;;;5054777;28;20373;-75
2021/10/24 04:56:24;;;;;;;0.00;0.00;;;8.30;60.30;;;;;;5055785;28;20071;-74
2021/10/24 04:58:49;;;;;;;0.00;0.00;;;8.30;60.10;;;;;;5056003;28;20046;-74
2021/10/24 05:01:15;;;;;;;0.00;0.00;;;8.30;60.10;;;;;;5071376;28;20033;-74
2021/10/24 05:03:41;;;;;;;0.00;0.00;;;8.30;61.00;;;;;;5055491;28;20465;-74
2021/10/24 05:06:07;;;;;;;0.00;0.00;;;8.30;60.40;;;;;;5071213;28;20040;-73
2021/10/24 05:08:33;;;;;;;0.00;0.00;;;8.30;60.20;;;;;;5055735;28;20435;-73
2021/10/24 05:10:58;;;;;;;0.00;0.00;;;8.30;60.20;;;;;;5055935;28;20029;-73
2021/10/24 05:13:24;;;;;;;0.00;0.00;;;8.30;60.30;;;;;;5054949;28;20377;-72
2021/10/24 05:15:50;;;;;;;0.10;0.00;;;8.30;60.40;;;;;;5055374;28;20025;-73
2021/10/24 05:18:16;;;;;;;0.00;0.00;;;8.30;60.40;;;;;;5055597;28;20409;-74
2021/10/24 05:20:42;;;;;;;0.00;0.00;;;8.40;60.50;;;;;;5055598;28;20029;-73
2021/10/24 05:23:07;;;;;;;0.00;0.00;;;8.30;60.40;;;;;;5055430;28;20469;-73
2021/10/24 05:25:33;;;;;;;0.00;0.00;;;8.40;60.40;;;;;;5056097;28;20437;-74
2021/10/24 05:27:59;;;;;;;0.00;0.00;;;8.50;60.40;;;;;;5055009;28;20037;-74
2021/10/24 05:30:25;;;;;;;0.00;0.00;;;8.50;60.30;;;;;;5055274;28;20061;-74
2021/10/24 05:32:51;;;;;;;0.00;0.00;;;8.50;60.30;;;;;;5056008;28;20021;-74
2021/10/24 05:35:17;;;;;;;0.00;0.00;;;8.60;60.30;;;;;;5055524;28;20036;-75
2021/10/24 05:37:43;;;;;;;0.00;0.00;;;8.60;60.30;;;;;;5055223;28;20108;-74
2021/10/24 05:40:11;;;;;;;0.00;0.00;;;8.60;60.20;;;;;;5054248;28;20024;-74
2021/10/24 05:42:38;;;;;;;0.00;0.00;;;8.70;60.30;;;;;;5055419;28;20029;-73
2021/10/24 05:45:04;;;;;;;0.00;0.00;;;8.70;60.20;;;;;;5070476;28;20029;-75
2021/10/24 05:47:30;;;;;;;0.00;0.00;;;8.70;60.20;;;;;;5055121;28;20033;-75
2021/10/24 05:49:56;;;;;;;0.00;0.00;;;8.80;60.20;;;;;;5054704;28;20021;-75
2021/10/24 05:52:22;;;;;;;0.00;0.00;;;8.80;60.20;;;;;;5055195;28;20060;-75
2021/10/24 05:54:48;;;;;;;0.00;0.00;;;8.90;60.20;;;;;;5055119;28;20107;-72
2021/10/24 05:57:14;;;;;;;0.00;0.00;;;8.90;60.20;;;;;;5054583;28;20067;-74
2021/10/24 05:59:41;;;;;;;0.00;0.00;;;9.00;60.20;;;;;;5053500;28;20537;-74
2021/10/24 06:02:09;;;;;;;0.00;0.00;;;9.00;60.10;;;;;;5054556;28;20047;-73
2021/10/24 06:04:36;;;;;;;0.00;0.00;;;9.10;60.10;;;;;;5054144;28;20419;-74
2021/10/24 06:07:02;;;;;;;0.00;0.00;;;9.10;60.10;;;;;;5054354;28;20040;-73
2021/10/24 06:09:30;;;;;;;0.00;0.00;;;9.10;60.20;;;;;;5054111;28;20028;-73
2021/10/24 06:12:00;;;;;;;0.00;0.00;;;9.20;60.20;;;;;;5054822;28;20063;-74
2021/10/24 06:14:27;;;;;;;0.00;0.00;;;9.20;60.20;;;;;;5055133;28;20478;-74
2021/10/24 06:16:53;;;;;;;0.10;0.00;;;9.30;60.20;;;;;;5054264;28;20057;-75
2021/10/24 06:19:18;;;;;;;0.00;0.00;;;9.30;60.10;;;;;;5054441;28;20091;-75
2021/10/24 06:21:44;;;;;;;0.00;0.00;;;9.30;60.20;;;;;;5054384;28;20520;-74
2021/10/24 06:24:10;;;;;;;0.00;0.00;;;9.40;60.30;;;;;;5054405;28;20049;-74
2021/10/24 06:26:36;;;;;;;0.00;0.00;;;9.40;60.30;;;;;;5054294;28;20040;-76
2021/10/24 06:29:03;;;;;;;0.00;0.00;;;9.50;60.40;;;;;;5053935;28;20036;-74
2021/10/24 06:31:32;;;;;;;0.03;0.00;;;9.50;60.40;;;;;;5053886;28;20040;-74
2021/10/24 06:33:57;;;;;;;0.00;0.00;;;9.60;60.30;;;;;;5053906;28;20032;-74
2021/10/24 06:36:23;;;;;;;0.00;0.00;;;9.70;60.30;;;;;;5054100;28;20025;-75
2021/10/24 06:38:49;;;;;;;0.00;0.00;;;9.80;60.20;;;;;;5054402;28;20044;-75
2021/10/24 06:41:15;;;;;;;0.00;0.00;;;10.00;60.00;;;;;;5054133;28;20052;-74
2021/10/24 06:43:40;;;;;;;0.00;0.00;;;10.10;59.80;;;;;;5053665;28;20021;-73
2021/10/24 06:46:06;;;;;;;0.00;0.00;;;10.20;59.80;;;;;;5054075;28;20116;-75
2021/10/24 06:48:32;;;;;;;0.00;0.00;;;10.30;59.70;;;;;;5053949;28;20029;-74
2021/10/24 06:50:57;;;;;;;0.00;0.00;;;10.40;60.10;;;;;;5054069;28;20059;-75
2021/10/24 06:53:23;;;;;;;0.00;0.00;;;10.50;59.50;;;;;;5054179;28;20040;-74
2021/10/24 06:55:49;;;;;;;0.00;0.00;;;10.70;59.40;;;;;;5053872;28;20048;-74
2021/10/24 06:58:15;;;;;;;0.00;0.00;;;10.80;59.20;;;;;;5053422;28;20064;-74
2021/10/24 07:00:42;;;;;;;0.00;0.00;;;10.90;58.90;;;;;;5054035;28;20029;-74
2021/10/24 07:03:08;;;;;;;0.00;0.00;;;11.10;58.80;;;;;;5053389;28;20033;-74
2021/10/24 07:05:34;;;;;;;0.00;0.00;;;11.20;58.50;;;;;;5054017;28;20036;-75
2021/10/24 07:08:00;;;;;;;0.00;0.00;;;11.30;58.30;;;;;;5053330;28;20047;-75
2021/10/24 07:10:26;;;;;;;0.00;0.00;;;11.50;58.00;;;;;;5068452;28;20041;-75
2021/10/24 07:12:57;;;;;;;0.00;0.00;;;11.50;57.80;;;;;;5068797;28;20033;-74
2021/10/24 07:15:24;;;;;;;0.00;0.00;;;11.50;57.70;;;;;;5053792;28;20496;-74
2021/10/24 07:17:51;;;;;;;0.00;0.00;;;11.60;57.60;;;;;;5053152;28;20128;-74
2021/10/24 07:20:17;;;;;;;0.00;0.00;;;11.70;57.70;;;;;;5053587;28;20104;-74
2021/10/24 07:22:43;;;;;;;0.00;0.00;;;11.80;57.40;;;;;;5069017;28;20048;-75
2021/10/24 07:25:10;;;;;;;0.00;0.00;;;11.90;57.30;;;;;;5052839;28;20523;-76
2021/10/24 07:27:36;;;;;;;0.00;0.00;;;12.20;57.10;;;;;;5053450;28;20104;-75
2021/10/24 07:30:04;;;;;;;0.00;0.00;;;12.30;56.70;;;;;;5053445;28;20036;-74
2021/10/24 07:32:30;;;;;;;0.00;0.00;;;12.40;56.40;;;;;;5053338;28;20021;-75
2021/10/24 07:34:57;;;;;;;0.00;0.00;;;12.40;56.30;;;;;;5052429;28;20040;-75
2021/10/24 07:37:23;;;;;;;0.00;0.00;;;12.40;56.10;;;;;;5053157;28;20029;-75
2021/10/24 07:39:49;;;;;;;0.00;0.00;;;12.50;56.10;;;;;;5052974;28;20021;-75
2021/10/24 07:42:15;;;;;;;0.00;0.00;;;12.50;55.80;;;;;;5052942;28;20032;-75
2021/10/24 07:44:40;;;;;;;0.00;0.00;;;12.50;55.60;;;;;;5052079;28;20033;-75
2021/10/24 07:47:07;;;;;;;0.00;0.00;;;12.30;55.70;;;;;;5053779;28;20037;-75
2021/10/24 07:49:33;;;;;;;0.00;0.00;;;12.20;55.90;;;;;;5053154;28;20032;-76
2021/10/24 07:51:59;;;;;;;0.00;0.00;;;12.20;56.10;;;;;;5068641;28;20021;-74
2021/10/24 07:54:25;;;;;;;0.00;0.00;;;12.10;56.20;;;;;;5052708;28;20446;-74
2021/10/24 07:56:51;;;;;;;0.00;0.00;;;12.00;56.40;;;;;;5053369;28;20107;-74
2021/10/24 07:59:18;;;;;;;0.00;0.00;;;12.00;56.50;;;;;;5053875;28;20059;-76
2021/10/24 08:01:44;;;;;;;0.00;0.00;;;11.90;56.50;;;;;;5053867;28;20131;-75
2021/10/24 08:04:09;;;;;;;0.00;0.00;;;11.90;56.70;;;;;;5071675;28;20028;-73
2021/10/24 08:06:36;;;;;;;0.00;0.00;;;11.80;56.70;;;;;;5057354;28;20099;-75
2021/10/24 08:09:07;;;;;;;0.00;0.00;;;11.70;56.90;;;;;;5057025;28;20021;-74
2021/10/24 08:11:34;;;;;;;0.00;0.00;;;11.70;57.00;;;;;;5072501;28;20083;-76
2021/10/24 08:14:01;;;;;;;0.00;0.00;;;11.70;57.20;;;;;;5073346;28;20049;-75
2021/10/24 08:16:27;;;;;;;0.00;0.00;;;11.80;57.20;;;;;;5056906;28;20025;-75
2021/10/24 08:18:53;;;;;;;0.00;0.00;;;11.80;57.10;;;;;;5057816;28;20032;-75
2021/10/24 08:21:19;;;;;;;0.00;0.00;;;11.90;57.10;;;;;;5056967;28;20033;-76
2021/10/24 08:23:45;;;;;;;0.00;0.00;;;12.00;57.10;;;;;;5055609;28;20045;-77
2021/10/24 08:26:12;;;;;;;0.00;0.00;;;12.00;57.00;;;;;;5055459;28;20451;-76
2021/10/24 08:28:38;;;;;;;0.00;0.00;;;12.00;56.80;;;;;;5056539;28;20025;-75
2021/10/24 08:31:04;;;;;;;0.00;0.00;;;12.00;56.80;;;;;;5055289;28;20056;-75
2021/10/24 08:33:30;;;;;;;0.00;0.00;;;12.00;57.00;;;;;;5056711;28;20024;-76
2021/10/24 08:35:59;;;;;;;0.00;0.00;;;12.00;57.00;;;;;;5056799;28;20078;-76
2021/10/24 08:38:25;;;;;;;0.00;0.00;;;12.10;56.90;;;;;;5057039;28;20522;-75
2021/10/24 08:40:52;;;;;;;0.00;0.00;;;12.10;56.90;;;;;;5056593;28;20029;-76
2021/10/24 08:43:19;;;;;;;0.00;0.00;;;12.10;56.90;;;;;;5072251;28;20384;-78
2021/10/24 08:45:48;;;;;;;0.00;0.00;;;12.20;56.80;;;;;;5055293;28;20086;-76
2021/10/24 08:48:18;;;;;;;0.00;0.00;;;12.20;56.80;;;;;;5055696;28;20053;-76
2021/10/24 08:50:45;;;;;;;0.00;0.00;;;12.30;56.70;;;;;;5073184;28;20531;-75
2021/10/24 08:53:13;;;;;;;0.00;0.00;;;12.50;56.60;;;;;;5056440;28;20027;-77
2021/10/24 08:55:41;;;;;;;0.00;0.00;;;12.50;56.30;;;;;;5056559;28;20389;-74
2021/10/24 08:58:09;;;;;;;0.00;0.00;;;12.60;56.10;;;;;;5056253;28;20496;-74
2021/10/24 09:00:36;;;;;;;0.00;0.00;;;12.70;56.00;;;;;;5056123;28;20025;-76
2021/10/24 09:03:12;;;;;;;0.00;0.00;;;12.70;55.90;;;;;;5056576;28;20033;-75
2021/10/24 09:05:49;;;;;;;0.00;0.00;;;12.70;55.90;;;;;;5056419;28;20025;-77
2021/10/24 09:08:17;;;;;;;0.00;0.00;;;12.70;55.90;;;;;;5055834;28;20029;-76
2021/10/24 09:10:43;;;;;;;0.00;0.00;;;12.70;55.70;;;;;;5054950;28;20424;-75
2021/10/24 09:13:11;;;;;;;0.00;0.00;;;12.70;55.80;;;;;;5056420;28;20041;-76
2021/10/24 09:15:47;;;;;;;0.00;0.00;;;12.70;55.90;;;;;;5054564;28;20036;-74
2021/10/24 09:18:13;;;;;;;0.00;0.00;;;12.70;55.80;;;;;;5055737;28;20029;-75
2021/10/24 09:20:40;;;;;;;0.00;0.00;;;12.70;55.80;;;;;;5055928;28;20397;-75
2021/10/24 09:23:09;;;;;;;0.00;0.00;;;12.70;56.00;;;;;;5055614;28;20429;-76
2021/10/24 09:25:50;;;;;;;0.00;0.00;;;12.70;55.90;;;;;;5055435;28;20068;-76
2021/10/24 09:28:20;;;;;;;0.00;0.00;;;12.60;55.80;;;;;;5055944;28;20056;-74
2021/10/24 09:31:00;;;;;;;0.00;0.00;;;12.70;55.90;;;;;;5053954;28;20021;-75
2021/10/24 09:33:40;;;;;;;0.00;0.00;;;12.80;56.00;;;;;;5055969;28;20075;-74
2021/10/24 09:36:06;;;;;;;0.00;0.00;;;12.90;55.70;;;;;;5055402;28;20029;-74
2021/10/24 09:38:31;;;;;;;0.00;0.00;;;13.00;55.50;;;;;;5054786;28;20037;-75
2021/10/24 09:40:58;;;;;;;0.00;0.00;;;13.00;55.40;;;;;;5055091;28;20095;-75
2021/10/24 09:43:27;;;;;;;0.00;0.00;;;13.00;55.30;;;;;;5055205;28;20056;-74
2021/10/24 09:45:59;;;;;;;0.00;0.00;;;13.00;55.80;;;;;;5054649;28;20032;-74
2021/10/24 09:48:27;;;;;;;0.00;0.00;;;13.00;55.00;;;;;;5054927;28;20029;-74
2021/10/24 09:50:59;;;;;;;0.00;0.00;;;13.10;55.10;;;;;;5070276;28;20064;-73
2021/10/24 09:53:31;;;;;;;0.00;0.00;;;13.10;55.00;;;;;;5053266;28;20029;-74
2021/10/24 09:55:56;;;;;;;0.00;0.00;;;13.20;54.90;;;;;;5053510;28;20395;-74
2021/10/24 09:58:26;;;;;;;0.00;0.00;;;13.30;54.60;;;;;;5054973;28;20021;-73
2021/10/24 10:00:52;;;;;;;0.00;0.00;;;13.30;54.40;;;;;;5054536;28;20032;-76
2021/10/24 10:03:21;;;;;;;0.00;0.00;;;13.20;54.20;;;;;;5054584;28;20108;-75
2021/10/24 10:05:50;;;;;;;0.00;0.00;;;13.10;54.20;;;;;;5053290;28;20036;-74
2021/10/24 10:08:16;;;;;;;0.00;0.00;;;13.00;54.40;;;;;;5055154;28;20044;-75
2021/10/24 10:11:09;;;;;;;0.00;0.00;;;12.90;54.80;;;;;;5055040;28;20025;-74
2021/10/24 10:13:44;;;;;;;0.00;0.00;;;13.00;54.80;;;;;;5054108;28;20074;-74
2021/10/24 10:16:13;;;;;;;0.00;0.00;;;13.00;54.60;;;;;;5054197;28;20025;-74
2021/10/24 10:18:57;;;;;;;0.00;0.00;;;13.00;54.50;;;;;;5054462;28;20021;-75
2021/10/24 10:21:32;;;;;;;0.00;0.00;;;12.90;54.40;;;;;;5054175;28;20033;-75
2021/10/24 10:24:07;;;;;;;0.00;0.00;;;12.90;54.40;;;;;;5054867;28;20377;-74
2021/10/24 10:26:39;;;;;;;0.00;0.00;;;12.80;54.50;;;;;;5053917;28;20032;-74
2021/10/24 10:29:09;;;;;;;0.00;0.00;;;12.60;55.20;;;;;;5053930;28;20033;-74
2021/10/24 10:31:36;;;;;;;0.00;0.00;;;12.40;55.00;;;;;;5054107;28;20400;-74
2021/10/24 10:34:05;;;;;;;0.00;0.00;;;12.30;55.40;;;;;;5052879;28;20032;-74
2021/10/24 10:36:47;;;;;;;0.00;0.00;;;12.10;55.60;;;;;;5054268;28;20162;-75
2021/10/24 10:39:31;;;;;;;0.00;0.00;;;11.90;56.10;;;;;;5054166;28;20060;-76
2021/10/24 10:42:24;;;;;;;0.00;0.00;;;11.80;56.60;;;;;;5053756;28;20473;-75
2021/10/24 10:45:16;;;;;;;0.00;0.00;;;11.70;57.00;;;;;;5054285;28;20021;-75
2021/10/24 10:47:55;;;;;;;0.00;0.00;;;11.70;57.40;;;;;;5052195;28;20384;-75
2021/10/24 10:50:30;;;;;;;0.00;0.00;;;11.80;57.50;;;;;;5054165;28;20029;-75
2021/10/24 10:53:01;;;;;;;0.00;0.00;;;11.90;57.40;;;;;;5052696;28;20025;-74
2021/10/24 10:55:47;;;;;;;0.00;0.00;;;12.10;57.30;;;;;;5069142;28;20036;-75
2021/10/24 10:58:43;;;;;;;0.00;0.00;;;12.20;57.20;;;;;;5053775;28;20389;-74
2021/10/24 11:01:29;;;;;;;0.00;0.00;;;12.30;56.90;;;;;;5054164;28;20021;-75
2021/10/24 11:04:07;;;;;;;0.00;0.00;;;12.50;56.70;;;;;;5054246;28;20059;-74
2021/10/24 11:06:36;;;;;;;0.00;0.00;;;12.70;56.50;;;;;;5053604;28;20040;-74
2021/10/24 11:09:10;;;;;;;0.00;0.00;;;12.90;56.20;;;;;;5053641;28;20466;-75
2021/10/24 11:11:39;;;;;;;0.00;0.00;;;13.20;55.70;;;;;;5053644;28;20021;-74
2021/10/24 11:14:14;;;;;;;0.00;0.00;;;13.40;55.30;;;;;;5053656;28;20031;-75
2021/10/24 11:16:40;;;;;;;;;;;13.60;54.90;;;;;;5053905;28;20029;-74
2021/10/24 11:22:01;;;;;;;0.00;0.00;;;14.50;54.30;;;;;;5053550;28;20025;-75
2021/10/24 11:24:48;;;;;;;0.00;0.00;;;15.40;53.90;;;;;;5032305;28;20094;-75
2021/10/24 11:27:22;;;;;;;0.00;0.00;;;15.80;52.00;;;;;;5033487;28;20038;-75
2021/10/24 11:29:57;;;;;;;0.00;0.00;;;15.60;50.90;;;;;;5033528;28;20555;-75
2021/10/24 11:32:37;;;;;;;0.00;0.00;;;15.20;50.60;;;;;;5034068;28;20034;-75
2021/10/24 11:35:09;;;;;;;0.00;0.00;;;14.60;50.50;;;;;;5033848;28;20028;-74
2021/10/24 11:37:41;;;;;;;0.00;0.00;;;14.10;50.60;;;;;;5033444;28;20116;-75
2021/10/24 11:40:16;;;;;;;0.00;0.00;;;13.70;51.00;;;;;;5037071;28;20025;-76
2021/10/24 11:43:15;;;;;;;0.00;0.00;;;13.40;51.20;;;;;;5036961;28;20083;-75
2021/10/24 11:46:00;;;;;;;0.00;0.00;;;13.10;51.50;;;;;;5037414;28;20363;-75
2021/10/24 11:48:31;;;;;;;0.00;0.00;;;13.00;51.60;;;;;;5037278;28;20489;-75
2021/10/24 11:50:57;;;;;;;0.00;0.00;;;12.90;51.70;;;;;;5053375;28;20113;-74
2021/10/24 11:53:32;;;;;;;0.00;0.00;;;12.90;51.70;;;;;;5037817;28;20139;-75
2021/10/24 11:56:20;;;;;;;0.00;0.00;;;13.00;51.50;;;;;;5037162;28;20025;-75
2021/10/24 11:59:04;;;;;;;0.00;0.00;;;13.00;51.30;;;;;;5037218;28;20040;-75
2021/10/24 12:01:30;;;;;;;0.00;0.00;;;13.10;51.30;;;;;;5037430;28;20036;-75
2021/10/24 12:03:58;;;;;;;0.00;0.00;;;13.10;51.30;;;;;;5052117;28;20408;-75
2021/10/24 12:06:46;;;;;;;0.00;0.00;;;13.10;51.20;;;;;;5036960;28;20041;-75
2021/10/24 12:09:14;;;;;;;0.00;0.00;;;13.20;51.10;;;;;;5036906;28;20033;-74
2021/10/24 12:11:43;;;;;;;0.00;0.00;;;13.10;51.00;;;;;;5036886;28;20044;-74
2021/10/24 12:14:11;;;;;;;0.00;0.00;;;13.10;51.00;;;;;;5036620;28;20037;-74
2021/10/24 12:16:46;;;;;;;0.00;0.00;;;13.10;51.10;;;;;;5037018;28;20490;-74
2021/10/24 12:19:28;;;;;;;0.00;0.00;;;13.10;51.40;;;;;;5037242;28;20446;-73
2021/10/24 12:22:00;;;;;;;0.00;0.00;;;13.20;51.30;;;;;;5036637;28;20470;-75
2021/10/24 12:24:48;;;;;;;0.00;0.00;;;13.30;51.20;;;;;;5056577;28;20078;-75
2021/10/24 12:27:35;;;;;;;0.00;0.00;;;13.50;51.30;;;;;;5056206;28;20044;-74
2021/10/24 12:30:08;;;;;;;0.00;0.00;;;13.60;51.20;;;;;;5056650;28;20028;-74
2021/10/24 12:32:53;;;;;;;0.00;0.00;;;13.90;51.20;;;;;;5057002;28;20079;-75
2021/10/24 12:35:18;;;;;;;0.00;0.00;;;13.90;51.00;;;;;;5056442;28;20025;-75
2021/10/24 12:38:04;;;;;;;0.00;0.00;;;13.80;50.80;;;;;;5056598;28;20040;-75
2021/10/24 12:40:32;;;;;;;0.00;0.00;;;13.70;51.00;;;;;;5056543;28;20059;-75
2021/10/24 12:43:16;;;;;;;0.00;0.00;;;13.50;51.20;;;;;;5056553;28;20032;-75
2021/10/24 12:45:46;;;;;;;0.00;0.00;;;13.30;51.50;;;;;;5056927;28;20021;-74
2021/10/24 12:48:13;;;;;;;0.00;0.00;;;13.10;51.80;;;;;;5055881;28;20033;-74
2021/10/24 12:50:39;;;;;;;0.00;0.00;;;13.00;52.40;;;;;;5056021;28;20036;-74
2021/10/24 12:53:11;;;;;;;0.10;0.00;;;12.80;52.90;;;;;;5056151;28;20032;-75
2021/10/24 12:55:38;;;;;;;0.00;0.00;;;12.60;53.60;;;;;;5056872;28;20025;-76
2021/10/24 12:58:04;;;;;;;0.00;0.00;;;12.50;54.00;;;;;;5054728;28;20037;-75
2021/10/24 13:00:34;;;;;;;0.00;0.00;;;12.30;54.30;;;;;;5054651;28;20529;-75
2021/10/24 13:03:00;;;;;;;0.00;0.00;;;12.20;54.80;;;;;;5054747;28;20029;-76